Time;durP1;ratioP1;P1;durP2;ratioP2;P2;SDS_P1;SDS_P2;PMS_P1;PMS_P2;Temp;Humidity;BMP_temperature;BMP_pressure;BME280_temperature;BME280_humidity;BME280_pressure;Samples;Min_cycle;Max_cycle;Signal;HPM_P1;HPM_P2
2023/03/07 00:02:49;;;;;;;35.63;19.77;;;;;;;2.07;100.00;99449.19;10342712;28;20092;-77
2023/03/07 00:07:49;;;;;;;38.78;19.15;;;;;;;2.09;100.00;99449.78;10381380;28;20078;-76
2023/03/07 00:12:50;;;;;;;36.17;17.52;;;;;;;2.12;100.00;99452.00;10381928;28;20064;-76
2023/03/07 00:17:50;;;;;;;35.33;17.15;;;;;;;2.12;100.00;99441.16;10395770;28;20045;-76
2023/03/07 00:22:51;;;;;;;34.35;16.88;;;;;;;2.09;100.00;99419.91;10414704;28;20072;-77
2023/03/07 00:27:51;;;;;;;35.10;16.83;;;;;;;2.20;100.00;99427.22;10397779;28;20046;-77
2023/03/07 00:32:53;;;;;;;29.17;14.98;;;;;;;2.24;100.00;99427.59;10411087;28;20037;-78
2023/03/07 00:37:53;;;;;;;27.80;12.90;;;;;;;2.31;100.00;99430.19;10340106;28;20474;-76
2023/03/07 00:42:54;;;;;;;23.27;12.15;;;;;;;2.35;100.00;99431.38;10341651;28;20419;-76
2023/03/07 00:47:56;;;;;;;19.17;11.25;;;;;;;2.27;100.00;99412.72;10341163;28;20455;-69
2023/03/07 00:52:57;;;;;;;15.77;8.93;;;;;;;2.30;100.00;99428.56;10372941;28;20042;-76
2023/03/07 00:57:57;;;;;;;16.30;5.93;;;;;;;2.25;100.00;99418.38;10356802;28;20057;-77
2023/03/07 01:03:00;;;;;;;9.65;4.00;;;;;;;2.14;100.00;99406.44;10312852;28;20041;-78
2023/03/07 01:08:01;;;;;;;10.00;4.85;;;;;;;2.04;100.00;99403.50;10411324;28;20140;-77
2023/03/07 01:13:01;;;;;;;8.07;5.15;;;;;;;1.86;100.00;99376.44;10379470;28;20113;-77
2023/03/07 01:18:05;;;;;;;10.57;5.53;;;;;;;2.12;100.00;99405.03;10413526;28;20091;-78
2023/03/07 01:23:06;;;;;;;13.00;6.78;;;;;;;2.18;100.00;99395.94;10377952;28;20057;-77
2023/03/07 01:28:06;;;;;;;7.72;4.72;;;;;;;2.10;100.00;99374.59;10413053;28;20085;-77
2023/03/07 01:33:08;;;;;;;6.53;3.67;;;;;;;2.17;100.00;99367.97;10395707;28;20042;-77
2023/03/07 01:38:08;;;;;;;5.85;3.30;;;;;;;2.16;100.00;99360.88;10413657;28;20037;-77
2023/03/07 01:43:25;;;;;;;8.00;3.15;;;;;;;2.26;100.00;99382.03;10395576;28;20033;-78
2023/03/07 01:48:25;;;;;;;;;;;;;;;2.26;100.00;99381.22;10412751;28;20042;-78
2023/03/07 01:53:26;;;;;;;16.88;3.97;;;;;;;2.10;100.00;99355.56;10412051;28;19925;-77
2023/03/07 01:58:26;;;;;;;4.75;2.65;;;;;;;2.18;100.00;99366.91;10358938;28;20046;-77
2023/03/07 02:03:36;;;;;;;6.85;2.90;;;;;;;2.09;100.00;99349.34;10338037;28;20088;-78
2023/03/07 02:08:36;;;;;;;6.63;2.53;;;;;;;2.24;100.00;99356.19;10354948;28;20041;-78
2023/03/07 02:13:37;;;;;;;13.98;2.97;;;;;;;2.23;100.00;99341.75;10337709;28;20038;-78
2023/03/07 02:18:43;;;;;;;8.95;2.50;;;;;;;2.19;100.00;99336.00;10369816;28;20572;-78
2023/03/07 02:24:16;;;;;;;8.38;2.97;;;;;;;2.01;100.00;99304.34;10386414;28;20046;-78
2023/03/07 02:29:17;;;;;;;16.50;2.97;;;;;;;1.98;100.00;99317.56;10351878;28;20429;-75
2023/03/07 02:34:21;;;;;;;14.32;3.47;;;;;;;1.95;100.00;99315.34;10386696;28;20026;-76
2023/03/07 02:39:22;;;;;;;6.40;2.58;;;;;;;1.89;100.00;99319.00;10361134;28;20045;-78
2023/03/07 02:44:22;;;;;;;13.50;3.17;;;;;;;1.79;100.00;99309.53;10377057;28;20406;-78
2023/03/07 02:49:23;;;;;;;14.00;3.75;;;;;;;1.69;100.00;99303.88;10392808;28;20029;-78
2023/03/07 02:54:24;;;;;;;12.23;2.95;;;;;;;1.71;100.00;99304.47;10394069;28;20039;-78
2023/03/07 02:59:24;;;;;;;8.48;3.00;;;;;;;1.67;100.00;99292.41;10378765;28;20045;-77
2023/03/07 03:04:25;;;;;;;12.02;3.03;;;;;;;1.74;100.00;99298.56;10408023;28;20045;-78
2023/03/07 03:09:25;;;;;;;7.72;3.20;;;;;;;1.57;100.00;99270.47;10409868;28;20030;-77
2023/03/07 03:14:26;;;;;;;15.13;3.22;;;;;;;1.70;100.00;99294.69;10376544;28;20038;-77
2023/03/07 03:19:27;;;;;;;18.98;4.25;;;;;;;1.76;100.00;99296.47;10391100;28;20103;-78
2023/03/07 03:24:28;;;;;;;9.57;2.03;;;;;;;1.74;100.00;99293.16;10377009;28;20116;-77
2023/03/07 03:29:28;;;;;;;12.10;1.85;;;;;;;1.62;100.00;99284.19;10418386;28;20041;-78
2023/03/07 03:34:29;;;;;;;12.00;3.42;;;;;;;1.48;100.00;99277.31;10383874;28;20037;-78
2023/03/07 03:39:29;;;;;;;6.38;2.42;;;;;;;1.04;100.00;99217.16;10418496;28;20041;-78
2023/03/07 03:44:30;;;;;;;7.20;2.42;;;;;;;1.48;100.00;99293.59;10416117;28;20033;-79
2023/03/07 03:49:30;;;;;;;11.40;2.55;;;;;;;1.46;100.00;99284.88;10399981;28;20033;-78
2023/03/07 03:54:31;;;;;;;12.50;2.58;;;;;;;1.38;100.00;99269.75;10400837;28;20044;-77
2023/03/07 03:59:31;;;;;;;11.00;1.83;;;;;;;1.34;100.00;99272.09;10417555;28;20037;-78
2023/03/07 04:04:31;;;;;;;7.30;1.75;;;;;;;1.45;100.00;99299.47;10383019;28;20034;-79
2023/03/07 04:09:32;;;;;;;13.98;2.97;;;;;;;1.41;100.00;99289.09;10415677;28;20033;-79
2023/03/07 04:14:32;;;;;;;9.20;2.00;;;;;;;1.34;100.00;99288.38;10407018;28;20053;-78
2023/03/07 04:19:33;;;;;;;11.50;1.73;;;;;;;1.35;100.00;99292.75;10436646;28;20033;-78
2023/03/07 04:24:33;;;;;;;8.50;1.48;;;;;;;0.99;100.00;99212.41;10383408;28;20060;-78
2023/03/07 04:29:34;;;;;;;9.40;1.60;;;;;;;0.98;100.00;99213.47;10418036;28;20034;-78
2023/03/07 04:34:34;;;;;;;7.63;2.05;;;;;;;1.31;100.00;99267.16;10417224;28;20045;-78
2023/03/07 04:39:35;;;;;;;10.43;2.00;;;;;;;1.26;100.00;99269.75;10396179;28;20095;-79
2023/03/07 04:44:35;;;;;;;10.32;2.20;;;;;;;1.21;100.00;99254.16;10380843;28;20034;-78
2023/03/07 04:49:36;;;;;;;7.38;2.35;;;;;;;1.31;100.00;99271.75;10414298;28;20033;-78
2023/03/07 04:54:36;;;;;;;7.72;1.67;;;;;;;1.25;100.00;99256.44;10416751;28;20034;-78
2023/03/07 04:59:38;;;;;;;16.08;2.33;;;;;;;1.25;100.00;99257.25;10395399;28;20053;-79
2023/03/07 05:04:38;;;;;;;9.80;2.67;;;;;;;1.29;100.00;99257.63;10365936;28;20180;-79
2023/03/07 05:09:39;;;;;;;9.65;2.95;;;;;;;1.17;100.00;99242.13;10371002;28;20073;-79
2023/03/07 05:14:39;;;;;;;6.38;2.00;;;;;;;1.18;100.00;99242.97;10372010;28;20034;-78
2023/03/07 05:19:40;;;;;;;8.77;2.45;;;;;;;1.20;100.00;99255.25;10371614;28;20505;-79
2023/03/07 05:24:41;;;;;;;7.03;2.38;;;;;;;1.21;100.00;99251.44;10355154;28;20042;-78
2023/03/07 05:29:41;;;;;;;10.20;1.85;;;;;;;1.24;100.00;99261.03;10366405;28;20476;-79
2023/03/07 05:34:43;;;;;;;8.80;1.95;;;;;;;1.32;100.00;99263.38;10354263;28;20041;-77
2023/03/07 05:39:44;;;;;;;8.68;1.33;;;;;;;1.44;100.00;99276.13;10339256;28;20057;-79
2023/03/07 05:44:44;;;;;;;12.80;1.77;;;;;;;1.45;100.00;99265.06;10373215;28;20030;-78
2023/03/07 05:49:45;;;;;;;13.82;1.98;;;;;;;1.45;100.00;99269.63;10319941;28;20038;-76
2023/03/07 05:54:45;;;;;;;10.13;1.70;;;;;;;1.48;100.00;99277.31;10340022;28;20054;-79
2023/03/07 05:59:46;;;;;;;7.63;1.73;;;;;;;1.40;100.00;99263.03;10379937;28;20045;-78
2023/03/07 06:04:46;;;;;;;15.98;2.25;;;;;;;1.44;100.00;99265.28;10395264;28;20053;-79
2023/03/07 06:09:47;;;;;;;9.40;2.53;;;;;;;1.51;100.00;99291.25;10410987;28;20486;-79
2023/03/07 06:14:47;;;;;;;10.90;2.20;;;;;;;1.53;100.00;99297.28;10393675;28;20034;-78
2023/03/07 06:19:48;;;;;;;6.90;1.60;;;;;;;1.35;100.00;99267.53;10376393;28;20045;-78
2023/03/07 06:24:48;;;;;;;15.18;2.92;;;;;;;1.49;100.00;99301.50;10378328;28;20084;-77
2023/03/07 06:29:49;;;;;;;8.52;1.75;;;;;;;1.59;100.00;99311.75;10393030;28;20034;-79
2023/03/07 06:34:49;;;;;;;11.35;2.63;;;;;;;1.67;100.00;99319.56;10375832;28;20037;-76
2023/03/07 06:39:50;;;;;;;4.20;1.10;;;;;;;1.59;100.00;99317.19;10410219;28;20049;-78
2023/03/07 06:44:50;;;;;;;5.70;1.85;;;;;;;1.48;100.00;99309.88;10407823;28;20041;-79
2023/03/07 06:49:51;;;;;;;2.33;0.60;;;;;;;1.47;100.00;99309.06;10409258;28;20034;-78
2023/03/07 06:54:51;;;;;;;5.80;0.90;;;;;;;1.51;100.00;99310.22;10393725;28;20061;-81
2023/03/07 06:59:52;;;;;;;3.42;0.90;;;;;;;1.55;100.00;99321.41;10374904;28;20488;-82
2023/03/07 07:04:52;;;;;;;6.15;1.23;;;;;;;1.45;100.00;99338.28;10407686;28;20065;-82
2023/03/07 07:09:53;;;;;;;4.90;1.00;;;;;;;1.52;100.00;99319.19;10410847;28;20041;-80
2023/03/07 07:14:53;;;;;;;5.68;0.90;;;;;;;1.69;100.00;99336.44;10408295;28;20046;-80
2023/03/07 07:19:54;;;;;;;8.32;1.52;;;;;;;1.73;100.00;99334.06;10392465;28;20034;-76
2023/03/07 07:24:54;;;;;;;5.18;1.23;;;;;;;1.81;100.00;99336.44;10410346;28;20037;-81
2023/03/07 07:29:55;;;;;;;10.85;1.98;;;;;;;1.87;100.00;99340.94;10410205;28;20042;-80
2023/03/07 07:34:55;;;;;;;9.38;1.23;;;;;;;1.94;100.00;99330.81;10407355;28;20049;-80
2023/03/07 07:39:55;;;;;;;9.70;2.38;;;;;;;2.05;100.00;99340.00;10408159;28;20048;-80
2023/03/07 07:44:56;;;;;;;11.45;2.38;;;;;;;2.00;100.00;99329.84;10375611;28;20050;-79
2023/03/07 07:49:57;;;;;;;4.25;1.35;;;;;;;2.18;100.00;99345.19;10392531;28;20040;-79
2023/03/07 07:54:57;;;;;;;7.85;1.73;;;;;;;2.22;100.00;99359.94;10366868;28;20042;-78
2023/03/07 07:59:58;;;;;;;7.70;1.52;;;;;;;2.17;100.00;99356.28;10335243;28;20057;-77
2023/03/07 08:04:58;;;;;;;5.95;1.70;;;;;;;2.26;100.00;99356.75;10329244;28;20411;-79
2023/03/07 08:09:59;;;;;;;7.22;1.65;;;;;;;2.21;100.00;99339.28;10357612;28;20042;-70
2023/03/07 08:14:59;;;;;;;6.15;1.08;;;;;;;2.26;100.00;99326.91;10372629;28;20155;-80
2023/03/07 08:20:03;;;;;;;7.00;1.33;;;;;;;2.36;100.00;99348.84;10375038;28;20088;-80
2023/03/07 08:25:05;;;;;;;4.15;1.02;;;;;;;2.51;100.00;99349.16;10383841;28;20080;-79
2023/03/07 08:30:05;;;;;;;4.75;1.10;;;;;;;2.55;100.00;99346.81;10383011;28;20045;-79
2023/03/07 08:35:06;;;;;;;5.50;1.10;;;;;;;2.73;100.00;99343.09;10397681;28;20102;-79
2023/03/07 08:40:07;;;;;;;8.82;1.58;;;;;;;2.82;100.00;99347.09;10413131;28;20068;-79
2023/03/07 08:45:08;;;;;;;5.15;1.45;;;;;;;2.86;100.00;99345.53;10380696;28;20060;-80
2023/03/07 08:50:09;;;;;;;3.05;1.10;;;;;;;2.92;100.00;99352.72;10398640;28;20034;-79
2023/03/07 08:55:10;;;;;;;5.65;0.75;;;;;;;2.86;100.00;99372.72;10383262;28;20101;-78
2023/03/07 09:00:11;;;;;;;8.18;1.33;;;;;;;2.73;100.00;99416.44;10401300;28;20488;-79
2023/03/07 09:05:11;;;;;;;3.10;1.08;;;;;;;1.38;100.00;99408.06;10340085;28;20556;-78
2023/03/07 09:10:12;;;;;;;6.35;1.38;;;;;;;0.72;100.00;99397.00;10314940;28;20057;-80
2023/03/07 09:15:12;;;;;;;5.57;1.48;;;;;;;0.64;100.00;99412.72;10314591;28;20038;-80
2023/03/07 09:20:15;;;;;;;4.50;1.45;;;;;;;0.72;100.00;99415.97;10300102;28;20494;-78
2023/03/07 09:25:16;;;;;;;7.00;1.73;;;;;;;0.97;100.00;99415.91;10315932;28;20048;-78
2023/03/07 09:30:17;;;;;;;3.83;1.20;;;;;;;1.35;100.00;99420.19;10348649;28;20068;-76
2023/03/07 09:35:17;;;;;;;2.78;1.30;;;;;;;1.78;100.00;99423.75;10315066;28;20031;-78
2023/03/07 09:40:19;;;;;;;7.70;2.38;;;;;;;2.04;100.00;99422.50;10325324;28;20080;-79
2023/03/07 09:45:43;;;;;;;9.77;2.08;;;;;;;2.25;100.00;99428.41;10340100;28;20042;-79
2023/03/07 09:50:43;;;;;;;8.57;1.10;;;;;;;2.54;100.00;99413.91;10409153;28;20037;-79
2023/03/07 09:55:44;;;;;;;4.57;1.52;;;;;;;2.58;100.00;99419.66;10393363;28;20113;-80
2023/03/07 10:00:45;;;;;;;5.28;0.90;;;;;;;2.74;100.00;99431.72;10367829;28;20390;-81
2023/03/07 10:05:53;;;;;;;8.43;1.23;;;;;;;2.67;100.00;99411.97;10389406;28;20069;-82
2023/03/07 10:10:54;;;;;;;4.68;0.77;;;;;;;2.71;100.00;99416.72;10357547;28;20052;-80
2023/03/07 10:15:55;;;;;;;7.47;1.20;;;;;;;2.78;100.00;99413.88;10388060;28;20104;-80
2023/03/07 10:21:13;;;;;;;10.00;1.90;;;;;;;2.72;100.00;99436.56;10325956;28;20064;-81
2023/03/07 10:26:47;;;;;;;11.30;2.10;;;;;;;2.65;100.00;99420.38;10378188;28;20061;-81
2023/03/07 10:31:50;;;;;;;11.20;1.45;;;;;;;2.85;100.00;99422.69;10388052;28;20049;-82
2023/03/07 10:36:52;;;;;;;6.90;1.30;;;;;;;2.92;100.00;99412.53;10350793;28;20042;-83
2023/03/07 10:41:52;;;;;;;7.28;2.47;;;;;;;2.99;100.00;99407.78;10336266;28;20075;-82
2023/03/07 10:46:57;;;;;;;13.20;3.03;;;;;;;3.27;100.00;99430.66;10332882;28;20124;-83
2023/03/07 10:52:05;;;;;;;3.72;1.05;;;;;;;3.59;100.00;99428.25;10314427;28;20089;-82
2023/03/07 10:57:06;;;;;;;4.97;0.88;;;;;;;3.84;100.00;99421.63;10348706;28;20065;-84
2023/03/07 11:02:25;;;;;;;7.70;1.50;;;;;;;3.91;100.00;99416.84;10349874;28;20044;-84
2023/03/07 11:07:31;;;;;;;4.40;1.15;;;;;;;4.08;100.00;99424.22;10348275;28;20061;-83
2023/03/07 11:12:31;;;;;;;5.40;1.00;;;;;;;4.02;100.00;99404.22;10350966;28;20057;-84
2023/03/07 11:17:43;;;;;;;7.30;1.50;;;;;;;4.00;100.00;99406.38;10346082;28;20120;-83
2023/03/07 11:22:44;;;;;;;6.40;1.40;;;;;;;4.14;100.00;99396.81;10332062;28;20041;-84
2023/03/07 11:27:44;;;;;;;6.82;1.75;;;;;;;4.09;100.00;99391.25;10323677;28;20058;-85
2023/03/07 11:33:10;;;;;;;6.20;0.93;;;;;;;4.28;100.00;99385.56;10344538;28;20088;-85
2023/03/07 11:38:22;;;;;;;3.15;0.65;;;;;;;4.30;100.00;99369.78;10342500;28;20037;-73
2023/03/07 11:43:36;;;;;;;5.78;1.10;;;;;;;4.25;100.00;99373.25;10332948;28;20042;-85
2023/03/07 11:49:15;;;;;;;3.80;0.90;;;;;;;4.69;100.00;99380.69;10318992;28;20482;-87
2023/03/07 11:54:30;;;;;;;6.22;0.80;;;;;;;4.96;100.00;99387.06;10345782;28;20034;-87
2023/03/07 11:59:47;;;;;;;3.92;0.80;;;;;;;5.64;100.00;99383.94;10380275;28;20403;-86
2023/03/07 12:05:07;;;;;;;8.43;1.25;;;;;;;5.34;100.00;99362.66;10346687;28;20564;-86
2023/03/07 12:10:26;;;;;;;9.45;1.20;;;;;;;5.32;100.00;99373.00;10371228;28;20088;-87
2023/03/07 12:15:35;;;;;;;10.90;1.58;;;;;;;4.03;100.00;99422.19;10399416;28;20449;-81
2023/03/07 12:21:09;;;;;;;6.90;1.90;;;;;;;2.74;100.00;99465.16;10350604;28;20077;-80
2023/03/07 12:26:23;;;;;;;6.80;1.20;;;;;;;2.33;100.00;99450.59;10341653;28;20034;-77
2023/03/07 12:31:36;;;;;;;4.20;1.40;;;;;;;2.16;100.00;99441.53;10390990;28;20080;-78
2023/03/07 12:36:55;;;;;;;5.07;0.98;;;;;;;2.39;100.00;99454.28;10389453;28;20043;-78
2023/03/07 12:41:58;;;;;;;2.50;0.82;;;;;;;2.84;100.00;99464.56;10365398;28;20041;-77
2023/03/07 12:47:24;;;;;;;4.97;1.42;;;;;;;3.40;100.00;99448.56;10405234;28;20065;-79
2023/03/07 12:52:49;;;;;;;8.15;0.82;;;;;;;3.75;100.00;99437.53;10387836;28;20038;-79
2023/03/07 12:57:58;;;;;;;10.88;1.45;;;;;;;3.99;100.00;99431.94;10395450;28;20045;-80
2023/03/07 13:03:00;;;;;;;8.32;1.25;;;;;;;4.23;100.00;99441.59;10381943;28;20045;-80
2023/03/07 13:08:00;;;;;;;7.95;1.15;;;;;;;5.03;100.00;99412.22;10341111;28;20053;-80
2023/03/07 13:13:39;;;;;;;8.07;1.55;;;;;;;5.52;100.00;99413.31;10299927;28;20035;-75
2023/03/07 13:18:40;;;;;;;7.95;1.10;;;;;;;5.28;100.00;99410.88;10332583;28;20132;-76
2023/03/07 13:23:40;;;;;;;2.50;0.90;;;;;;;5.87;100.00;99410.13;10315594;28;20045;-76
2023/03/07 13:28:45;;;;;;;7.18;1.20;;;;;;;6.04;100.00;99396.38;10315920;28;20035;-75
2023/03/07 13:33:46;;;;;;;9.05;1.10;;;;;;;5.19;100.00;99380.50;10376251;28;20049;-75
2023/03/07 13:38:47;;;;;;;10.55;1.38;;;;;;;5.93;100.00;99394.59;10393738;28;20038;-76
2023/03/07 13:43:47;;;;;;;5.05;0.90;;;;;;;6.40;100.00;99410.31;10408775;28;20466;-76
2023/03/07 13:48:48;;;;;;;2.72;0.57;;;;;;;6.64;100.00;99373.28;10410016;28;20464;-77
2023/03/07 13:53:49;;;;;;;10.52;1.55;;;;;;;5.70;100.00;99412.97;10411250;28;20064;-77
2023/03/07 13:59:13;;;;;;;5.95;1.05;;;;;;;5.07;100.00;99439.81;10378844;28;20037;-76
2023/03/07 14:04:23;;;;;;;5.50;0.95;;;;;;;4.72;100.00;99472.88;10412005;28;20045;-76
2023/03/07 14:09:25;;;;;;;7.50;0.80;;;;;;;4.11;100.00;99446.31;10409953;28;20559;-76
2023/03/07 14:14:44;;;;;;;3.75;1.20;;;;;;;5.07;100.00;99453.47;10394196;28;20037;-75
2023/03/07 14:20:10;;;;;;;5.50;1.33;;;;;;;5.03;100.00;99457.78;10412677;28;20052;-74
2023/03/07 14:25:27;;;;;;;5.10;0.90;;;;;;;5.55;100.00;99442.84;10411399;28;20568;-72
2023/03/07 14:30:29;;;;;;;7.25;0.80;;;;;;;5.78;100.00;99431.59;10338281;28;20034;-76
2023/03/07 14:35:55;;;;;;;4.68;1.50;;;;;;;6.21;100.00;99440.78;10367927;28;20566;-75
2023/03/07 14:41:19;;;;;;;6.95;0.73;;;;;;;6.93;100.00;99444.00;10381089;28;20037;-75
2023/03/07 14:46:41;;;;;;;1.38;0.63;;;;;;;6.33;100.00;99456.19;10448727;28;20041;-74
2023/03/07 14:51:41;;;;;;;4.43;0.60;;;;;;;5.37;100.00;99457.63;10401258;28;20582;-74
2023/03/07 14:56:42;;;;;;;3.38;0.63;;;;;;;5.26;100.00;99467.63;10329595;28;20061;-74
2023/03/07 15:01:42;;;;;;;7.18;0.60;;;;;;;6.12;100.00;99449.69;10335859;28;20042;-74
2023/03/07 15:06:43;;;;;;;4.15;0.75;;;;;;;6.63;100.00;99430.97;10368017;28;20068;-78
2023/03/07 15:11:45;;;;;;;8.35;1.08;;;;;;;7.38;100.00;99441.72;10353289;28;20088;-76
2023/03/07 15:16:50;;;;;;;5.22;0.75;;;;;;;6.47;100.00;99460.13;10319444;28;20038;-77
2023/03/07 15:21:58;;;;;;;3.75;0.57;;;;;;;5.28;100.00;99465.47;10378087;28;20087;-76
2023/03/07 15:26:59;;;;;;;1.83;0.43;;;;;;;4.65;100.00;99479.34;10416748;28;20408;-78
2023/03/07 15:32:20;;;;;;;5.47;0.57;;;;;;;4.61;100.00;99475.47;10399524;28;20072;-76
2023/03/07 15:37:25;;;;;;;2.13;0.50;;;;;;;4.82;100.00;99464.84;10411822;28;20034;-75
2023/03/07 15:42:26;;;;;;;1.85;0.50;;;;;;;4.53;100.00;99473.16;10416394;28;20047;-75
2023/03/07 15:47:28;;;;;;;2.10;0.32;;;;;;;3.95;100.00;99471.63;10400028;28;20040;-75
2023/03/07 15:52:36;;;;;;;4.13;1.13;;;;;;;3.45;100.00;99513.97;10399987;28;20042;-75
2023/03/07 15:57:37;;;;;;;1.58;0.55;;;;;;;2.83;100.00;99539.00;10414891;28;20064;-74
2023/03/07 16:02:40;;;;;;;5.53;0.90;;;;;;;2.29;100.00;99585.22;10383289;28;20057;-76
2023/03/07 16:07:40;;;;;;;4.07;1.17;;;;;;;1.78;100.00;99575.72;10383469;28;20037;-76
2023/03/07 16:12:45;;;;;;;4.63;0.70;;;;;;;1.71;100.00;99562.22;10382179;28;20068;-76
2023/03/07 16:17:47;;;;;;;1.40;0.60;;;;;;;1.61;100.00;99559.22;10366260;28;20038;-76
2023/03/07 16:22:47;;;;;;;2.47;0.70;;;;;;;1.22;100.00;99545.09;10324560;28;20117;-76
2023/03/07 16:27:50;;;;;;;1.85;0.82;;;;;;;1.10;100.00;99541.47;10325824;28;20494;-77
2023/03/07 16:32:51;;;;;;;4.85;1.52;;;;;;;1.08;100.00;99555.25;10391587;28;20065;-76
2023/03/07 16:37:52;;;;;;;4.57;0.90;;;;;;;0.96;100.00;99563.28;10361576;28;20029;-76
2023/03/07 16:42:53;;;;;;;2.45;0.70;;;;;;;0.79;100.00;99548.66;10342105;28;20042;-77
2023/03/07 16:47:57;;;;;;;2.53;0.75;;;;;;;0.80;100.00;99563.84;10360535;28;20125;-76
2023/03/07 16:52:58;;;;;;;3.28;0.90;;;;;;;0.72;100.00;99578.50;10342439;28;20429;-75
2023/03/07 16:57:59;;;;;;;7.05;1.00;;;;;;;0.59;100.00;99568.59;10340197;28;20494;-77
2023/03/07 17:03:02;;;;;;;3.25;1.10;;;;;;;0.42;100.00;99575.63;10332128;28;20065;-78
2023/03/07 17:08:02;;;;;;;7.07;1.60;;;;;;;0.24;100.00;99559.31;10352857;28;20041;-77
2023/03/07 17:13:04;;;;;;;3.03;1.20;;;;;;;0.31;100.00;99600.69;10411570;28;20037;-78
2023/03/07 17:18:04;;;;;;;4.15;1.30;;;;;;;0.20;100.00;99603.03;10395552;28;20756;-78
2023/03/07 17:23:05;;;;;;;6.95;1.20;;;;;;;0.13;100.00;99614.97;10379945;28;20045;-78
2023/03/07 17:28:07;;;;;;;6.15;1.60;;;;;;;-0.02;100.00;99620.69;10426152;28;20555;-77
2023/03/07 17:33:09;;;;;;;3.53;1.65;;;;;;;-0.15;100.00;99615.31;10438187;28;20033;-78
2023/03/07 17:38:09;;;;;;;1.88;1.20;;;;;;;-0.12;100.00;99633.84;10436901;28;20037;-78
2023/03/07 17:43:10;;;;;;;5.65;1.58;;;;;;;-0.09;100.00;99636.09;10418311;28;20041;-78
2023/03/07 17:48:10;;;;;;;3.07;1.50;;;;;;;-0.13;100.00;99640.28;10439195;28;20037;-78
2023/03/07 17:53:11;;;;;;;6.43;1.80;;;;;;;-0.20;100.00;99661.94;10419050;28;20033;-77
2023/03/07 17:58:11;;;;;;;3.90;1.80;;;;;;;-0.36;100.00;99659.72;10434894;28;20043;-77
2023/03/07 18:03:12;;;;;;;4.47;1.40;;;;;;;-0.39;100.00;99685.31;10453364;28;20068;-78
2023/03/07 18:08:12;;;;;;;4.57;2.40;;;;;;;-0.38;100.00;99695.06;10452464;28;20040;-78
2023/03/07 18:13:13;;;;;;;3.17;1.88;;;;;;;-0.33;100.00;99702.53;10391401;28;20091;-78
2023/03/07 18:18:15;;;;;;;3.70;1.80;;;;;;;-0.26;100.00;99703.38;10434861;28;20025;-78
2023/03/07 18:23:17;;;;;;;2.83;1.80;;;;;;;-0.09;100.00;99722.66;10434467;28;20037;-79
2023/03/07 18:28:17;;;;;;;2.35;0.98;;;;;;;-0.13;100.00;99705.19;10381743;28;20037;-78
2023/03/07 18:33:17;;;;;;;1.53;1.00;;;;;;;-0.04;100.00;99714.75;10435510;28;20044;-78
2023/03/07 18:38:18;;;;;;;3.13;1.20;;;;;;;-0.13;100.00;99705.19;10418328;28;20044;-77
2023/03/07 18:43:18;;;;;;;1.65;1.08;;;;;;;-0.10;100.00;99711.03;10417784;28;20068;-78
2023/03/07 18:48:19;;;;;;;7.68;2.75;;;;;;;-0.07;100.00;99723.28;10392406;28;20037;-77
2023/03/07 18:53:20;;;;;;;1.15;1.00;;;;;;;-0.04;100.00;99731.00;10392876;28;20069;-78
2023/03/07 18:58:20;;;;;;;5.50;3.17;;;;;;;-0.17;100.00;99725.59;10410321;28;20113;-78
2023/03/07 19:03:21;;;;;;;3.17;1.95;;;;;;;-0.16;100.00;99711.88;10409261;28;20041;-77
2023/03/07 19:08:21;;;;;;;2.72;1.30;;;;;;;-0.20;100.00;99718.75;10401122;28;20025;-78
2023/03/07 19:13:22;;;;;;;1.15;1.00;;;;;;;-0.22;100.00;99728.94;10402964;28;20037;-77
2023/03/07 19:18:22;;;;;;;2.60;1.17;;;;;;;-0.41;100.00;99711.72;10407062;28;20030;-80
2023/03/07 19:23:23;;;;;;;3.63;1.33;;;;;;;-0.37;100.00;99731.91;10350532;28;20463;-80
2023/03/07 19:28:24;;;;;;;1.77;1.65;;;;;;;-0.30;100.00;99738.13;10375517;28;20040;-79
2023/03/07 19:33:24;;;;;;;1.55;1.02;;;;;;;-0.27;100.00;99736.84;10449417;28;20124;-79
2023/03/07 19:38:25;;;;;;;1.13;0.90;;;;;;;-0.24;100.00;99737.28;10431789;28;20025;-80
2023/03/07 19:43:26;;;;;;;1.55;1.00;;;;;;;-0.20;100.00;99732.28;10432433;28;20124;-79
2023/03/07 19:48:26;;;;;;;3.15;1.10;;;;;;;-0.22;100.00;99740.59;10448542;28;20060;-79
2023/03/07 19:53:27;;;;;;;2.27;1.40;;;;;;;-0.25;100.00;99735.63;10395655;28;20063;-78
2023/03/07 19:58:27;;;;;;;6.40;1.60;;;;;;;-0.26;100.00;99744.75;10443292;28;20158;-78
2023/03/07 20:03:28;;;;;;;3.80;1.67;;;;;;;-0.48;100.00;99705.50;10399545;28;20041;-77
2023/03/07 20:08:32;;;;;;;4.10;1.83;;;;;;;-0.23;100.00;99738.09;10399556;28;20088;-79
2023/03/07 20:13:32;;;;;;;7.40;3.07;;;;;;;-0.33;100.00;99751.22;10403385;28;20083;-78
2023/03/07 20:18:33;;;;;;;6.95;3.38;;;;;;;-0.58;100.00;99737.53;10408186;28;20121;-81
2023/03/07 20:23:34;;;;;;;4.93;2.30;;;;;;;-0.76;100.00;99738.19;10404471;28;20084;-80
2023/03/07 20:28:35;;;;;;;8.05;3.45;;;;;;;-0.84;100.00;99747.31;10357405;28;20041;-80
2023/03/07 20:33:36;;;;;;;6.40;2.83;;;;;;;-0.79;100.00;99766.44;10397406;28;20064;-80
2023/03/07 20:38:37;;;;;;;5.00;2.50;;;;;;;-0.79;100.00;99777.25;10398524;28;20037;-80
2023/03/07 20:43:37;;;;;;;4.30;2.15;;;;;;;-0.70;100.00;99775.19;10405506;28;20131;-80
2023/03/07 20:48:38;;;;;;;5.50;2.15;;;;;;;-0.69;100.00;99780.38;10437928;28;20048;-80
2023/03/07 20:53:38;;;;;;;3.53;2.50;;;;;;;-0.71;100.00;99771.63;10453831;28;20489;-79
2023/03/07 20:58:39;;;;;;;4.18;2.85;;;;;;;-0.81;100.00;99757.69;10428859;28;20041;-71
2023/03/07 21:03:40;;;;;;;5.97;3.17;;;;;;;-0.82;100.00;99777.66;10420896;28;22304;-80
2023/03/07 21:08:40;;;;;;;5.93;2.40;;;;;;;-1.12;100.00;99742.91;10373776;28;20132;-80
2023/03/07 21:13:42;;;;;;;7.63;2.47;;;;;;;-1.00;100.00;99774.75;10381109;28;20125;-81
2023/03/07 21:18:42;;;;;;;3.15;2.33;;;;;;;-1.23;100.00;99751.63;10355029;28;20073;-77
2023/03/07 21:23:43;;;;;;;8.13;2.50;;;;;;;-1.17;100.00;99777.00;10351626;28;20042;-79
2023/03/07 21:28:44;;;;;;;7.57;2.83;;;;;;;-1.11;100.00;99795.91;10380687;28;20038;-80
2023/03/07 21:33:46;;;;;;;6.53;3.50;;;;;;;-1.18;100.00;99784.25;10396733;28;20092;-80
2023/03/07 21:38:47;;;;;;;8.27;3.13;;;;;;;-1.32;100.00;99780.72;10378887;28;20040;-79
2023/03/07 21:43:47;;;;;;;6.57;3.10;;;;;;;-1.37;100.00;99785.03;10364478;28;20069;-79
2023/03/07 21:48:48;;;;;;;12.83;4.87;;;;;;;-1.44;100.00;99796.66;10370843;28;20129;-78
2023/03/07 21:53:49;;;;;;;5.27;3.40;;;;;;;-1.43;100.00;99806.44;10392877;28;20044;-78
2023/03/07 21:58:50;;;;;;;4.03;2.60;;;;;;;-1.31;100.00;99819.34;10368939;28;20077;-78
2023/03/07 22:03:51;;;;;;;4.85;2.70;;;;;;;-1.37;100.00;99822.84;10388621;28;20132;-73
2023/03/07 22:08:52;;;;;;;3.33;2.30;;;;;;;-1.46;100.00;99809.53;10371035;28;20049;-79
2023/03/07 22:13:53;;;;;;;2.73;2.00;;;;;;;-1.46;100.00;99803.28;10390757;28;20045;-79
2023/03/07 22:18:56;;;;;;;3.00;1.98;;;;;;;-1.42;100.00;99810.78;10364641;28;20285;-79
2023/03/07 22:23:59;;;;;;;6.47;2.63;;;;;;;-1.49;100.00;99807.25;10412462;28;20328;-79
2023/03/07 22:29:00;;;;;;;3.80;2.50;;;;;;;-1.45;100.00;99822.00;10449386;28;20052;-78
2023/03/07 22:34:00;;;;;;;4.87;2.57;;;;;;;-1.57;100.00;99812.81;10431672;28;20044;-78
2023/03/07 22:39:01;;;;;;;8.40;3.27;;;;;;;-1.55;100.00;99826.94;10432365;28;20461;-79
2023/03/07 22:44:02;;;;;;;8.03;4.23;;;;;;;-1.62;100.00;99820.66;10417465;28;20100;-78
2023/03/07 22:49:02;;;;;;;9.60;4.05;;;;;;;-1.53;100.00;99832.97;10436131;28;20033;-79
2023/03/07 22:54:04;;;;;;;7.70;3.23;;;;;;;-1.41;100.00;99822.41;10416879;28;20056;-79
2023/03/07 22:59:04;;;;;;;5.07;2.60;;;;;;;-1.29;100.00;99830.75;10433382;28;20101;-79
2023/03/07 23:04:06;;;;;;;9.50;3.13;;;;;;;-1.43;100.00;99814.53;10417216;28;20501;-79
2023/03/07 23:09:07;;;;;;;6.85;3.25;;;;;;;-1.38;100.00;99827.41;10400509;28;20096;-79
2023/03/07 23:14:08;;;;;;;6.03;2.83;;;;;;;-1.38;100.00;99832.81;10395390;28;20064;-79
2023/03/07 23:19:08;;;;;;;6.07;3.80;;;;;;;-1.54;100.00;99814.28;10414154;28;20045;-79
2023/03/07 23:24:09;;;;;;;13.97;3.93;;;;;;;-1.51;100.00;99833.59;10417223;28;20464;-78